Sultan Atasoy — TCYG9 — position and weather

sailwx.info

Track history (hours):
 
Tides and Currents Weather Stations Pressure Air Temp Water Temp Dewpoint Dewpoint Depression Visibility Wind Speed Wind Dir Waves Ship Positions

Sultan Atasoy

Last reported at 2014-Sep-30 22:11 UTC. Time now 2014-Oct-01 06:12 UTC.
Position N 41°01' E 028°60'.

Length 109 m; draft 4.4 m.

Type: Ship. MMSI: 271040963.

Date/timePositionNaut miles runAvg speedWind from/ knotsBaromVisibWave heightAir tempDewpointWater temp
2014-Sep-30 22:11N 41°01' E 028°60'5 8.2
2014-Sep-30 21:33N 40°56' E 028°58'3 2.8
2014-Sep-30 20:23N 40°59' E 028°56'0 0.0
2014-Sep-30 19:29N 40°59' E 028°56'0 0.0
2014-Sep-30 18:29N 40°59' E 028°56'0 0.0
2014-Sep-30 17:11N 40°59' E 028°56'0 0.0
2014-Sep-30 16:05N 40°59' E 028°56'0 0.0
2014-Sep-30 15:11N 40°59' E 028°56'0 0.0
2014-Sep-30 14:29N 40°59' E 028°56'0 0.0
2014-Sep-30 12:29N 40°59' E 028°56'0 0.0
2014-Sep-30 11:29N 40°59' E 028°56'0 0.0
2014-Sep-30 10:23N 40°59' E 028°56'0 0.1
2014-Sep-30 09:18N 40°59' E 028°56'7 6.8
2014-Sep-30 08:16N 40°52' E 028°52'911.6
2014-Sep-30 07:31N 40°50' E 028°41'  
2014-Sep-26 20:30N 40°53' E 028°41'1010.9
2014-Sep-26 19:32N 40°52' E 028°55'1010.5
2014-Sep-26 18:33N 40°50' E 029°08'4 4.3
2014-Sep-26 17:33N 40°53' E 029°12'0 0.0
2014-Sep-26 16:29N 40°53' E 029°12'0 0.0
2014-Sep-26 15:29N 40°53' E 029°12'0 0.0
2014-Sep-26 14:29N 40°53' E 029°12'0 0.0
2014-Sep-26 13:23N 40°53' E 029°12'0 0.0
2014-Sep-26 12:29N 40°53' E 029°12'0 0.0
2014-Sep-26 11:29N 40°53' E 029°12'0 0.0
2014-Sep-26 10:23N 40°53' E 029°12'0 0.0
2014-Sep-26 09:29N 40°53' E 029°12'0 0.0
2014-Sep-26 08:29N 40°53' E 029°12'0 0.0
2014-Sep-26 07:17N 40°53' E 029°12'0 0.0
2014-Sep-26 06:29N 40°53' E 029°12'0 0.0
2014-Sep-26 05:33N 40°53' E 029°12'1 0.5
2014-Sep-26 04:33N 40°52' E 029°12'8 7.8
2014-Sep-26 03:33N 40°50' E 029°02'1010.4
2014-Sep-26 02:33N 40°49' E 028°48'  
2014-Sep-22 23:29N 40°53' E 028°35'1010.2
2014-Sep-22 22:33N 40°52' E 028°48'1110.9
2014-Sep-22 21:33N 40°49' E 029°02'9 8.7
2014-Sep-22 20:33N 40°53' E 029°12'0 0.1
2014-Sep-22 19:33N 40°53' E 029°12'0 0.0
2014-Sep-22 18:27N 40°53' E 029°12'0 0.0
2014-Sep-22 17:33N 40°53' E 029°12'0 0.0
2014-Sep-22 16:33N 40°53' E 029°12'0 0.0
2014-Sep-22 15:33N 40°53' E 029°12'0 0.0
2014-Sep-22 14:33N 40°53' E 029°12'0 0.0
2014-Sep-22 13:33N 40°53' E 029°12'0 0.0
2014-Sep-22 12:33N 40°53' E 029°12'0 0.0
2014-Sep-22 11:33N 40°53' E 029°12'0 0.0
2014-Sep-22 10:33N 40°53' E 029°12'0 0.0
2014-Sep-22 09:33N 40°53' E 029°12'0 0.0
2014-Sep-22 08:27N 40°53' E 029°12'0 0.0
2014-Sep-22 07:33N 40°53' E 029°12'0 0.0
2014-Sep-22 06:33N 40°53' E 029°12'0 0.0
2014-Sep-22 05:33N 40°53' E 029°12'0 0.0
2014-Sep-22 04:27N 40°53' E 029°12'0 0.0
2014-Sep-22 03:33N 40°53' E 029°12'0 0.0
2014-Sep-22 02:33N 40°53' E 029°12'0 0.0
2014-Sep-22 01:33N 40°53' E 029°12'0 0.0
2014-Sep-22 00:33N 40°53' E 029°12'0 0.0
2014-Sep-21 23:27N 40°53' E 029°12'0 0.0
2014-Sep-21 22:33N 40°53' E 029°12'0 0.0
2014-Sep-21 21:33N 40°53' E 029°12'0 0.0
2014-Sep-21 20:33N 40°53' E 029°12'0 0.0
2014-Sep-21 19:33N 40°53' E 029°12'0 0.0
2014-Sep-21 18:33N 40°53' E 029°12'0 0.0
2014-Sep-21 17:27N 40°53' E 029°12'0 0.0
2014-Sep-21 16:33N 40°53' E 029°12'0 0.0
2014-Sep-21 15:33N 40°53' E 029°12'0 0.0
2014-Sep-21 14:33N 40°53' E 029°12'0 0.0
2014-Sep-21 13:27N 40°53' E 029°12'0 0.0
2014-Sep-21 12:33N 40°53' E 029°12'0 0.0
2014-Sep-21 11:33N 40°53' E 029°12'0 0.0
2014-Sep-21 10:33N 40°53' E 029°12'0 0.0
2014-Sep-21 09:33N 40°53' E 029°12'0 0.0
2014-Sep-21 08:27N 40°53' E 029°12'0 0.0
2014-Sep-21 07:33N 40°53' E 029°12'0 0.0
2014-Sep-21 06:27N 40°53' E 029°12'0 0.0
2014-Sep-21 05:33N 40°53' E 029°12'0 0.0
2014-Sep-21 04:27N 40°53' E 029°12'0 0.0
2014-Sep-21 03:33N 40°53' E 029°12'0 0.0
2014-Sep-21 02:33N 40°53' E 029°12'0 0.0
2014-Sep-21 01:33N 40°53' E 029°12'0 0.0
2014-Sep-21 00:33N 40°53' E 029°12'0 0.0
2014-Sep-20 23:33N 40°53' E 029°12'0 0.0
2014-Sep-20 22:27N 40°53' E 029°12'  
Track history (hours):
 
Tides and Currents Weather Stations Pressure Air Temp Water Temp Dewpoint Dewpoint Depression Visibility Wind Speed Wind Dir Waves Ship Positions

Sultan Atasoy

Last reported at 2014-Sep-30 22:11 UTC. Time now 2014-Oct-01 06:12 UTC.
Position N 41°01' E 028°60'.

Length 109 m; draft 4.4 m.

Type: Ship. MMSI: 271040963.

Date/timePositionNaut miles runAvg speedWind from/ knotsBaromVisibWave heightAir tempDewpointWater temp
2014-Sep-30 22:11N 41°01' E 028°60'5 8.2
2014-Sep-30 21:33N 40°56' E 028°58'3 2.8
2014-Sep-30 20:23N 40°59' E 028°56'0 0.0
2014-Sep-30 19:29N 40°59' E 028°56'0 0.0
2014-Sep-30 18:29N 40°59' E 028°56'0 0.0
2014-Sep-30 17:11N 40°59' E 028°56'0 0.0
2014-Sep-30 16:05N 40°59' E 028°56'0 0.0
2014-Sep-30 15:11N 40°59' E 028°56'0 0.0
2014-Sep-30 14:29N 40°59' E 028°56'0 0.0
2014-Sep-30 12:29N 40°59' E 028°56'0 0.0
2014-Sep-30 11:29N 40°59' E 028°56'0 0.0
2014-Sep-30 10:23N 40°59' E 028°56'0 0.1
2014-Sep-30 09:18N 40°59' E 028°56'7 6.8
2014-Sep-30 08:16N 40°52' E 028°52'911.6
2014-Sep-30 07:31N 40°50' E 028°41'  
2014-Sep-26 20:30N 40°53' E 028°41'1010.9
2014-Sep-26 19:32N 40°52' E 028°55'1010.5
2014-Sep-26 18:33N 40°50' E 029°08'4 4.3
2014-Sep-26 17:33N 40°53' E 029°12'0 0.0
2014-Sep-26 16:29N 40°53' E 029°12'0 0.0
2014-Sep-26 15:29N 40°53' E 029°12'0 0.0
2014-Sep-26 14:29N 40°53' E 029°12'0 0.0
2014-Sep-26 13:23N 40°53' E 029°12'0 0.0
2014-Sep-26 12:29N 40°53' E 029°12'0 0.0
2014-Sep-26 11:29N 40°53' E 029°12'0 0.0
2014-Sep-26 10:23N 40°53' E 029°12'0 0.0
2014-Sep-26 09:29N 40°53' E 029°12'0 0.0
2014-Sep-26 08:29N 40°53' E 029°12'0 0.0
2014-Sep-26 07:17N 40°53' E 029°12'0 0.0
2014-Sep-26 06:29N 40°53' E 029°12'0 0.0
2014-Sep-26 05:33N 40°53' E 029°12'1 0.5
2014-Sep-26 04:33N 40°52' E 029°12'8 7.8
2014-Sep-26 03:33N 40°50' E 029°02'1010.4
2014-Sep-26 02:33N 40°49' E 028°48'  
2014-Sep-22 23:29N 40°53' E 028°35'1010.2
2014-Sep-22 22:33N 40°52' E 028°48'1110.9
2014-Sep-22 21:33N 40°49' E 029°02'9 8.7
2014-Sep-22 20:33N 40°53' E 029°12'0 0.1
2014-Sep-22 19:33N 40°53' E 029°12'0 0.0
2014-Sep-22 18:27N 40°53' E 029°12'0 0.0
2014-Sep-22 17:33N 40°53' E 029°12'0 0.0
2014-Sep-22 16:33N 40°53' E 029°12'0 0.0
2014-Sep-22 15:33N 40°53' E 029°12'0 0.0
2014-Sep-22 14:33N 40°53' E 029°12'0 0.0
2014-Sep-22 13:33N 40°53' E 029°12'0 0.0
2014-Sep-22 12:33N 40°53' E 029°12'0 0.0
2014-Sep-22 11:33N 40°53' E 029°12'0 0.0
2014-Sep-22 10:33N 40°53' E 029°12'0 0.0
2014-Sep-22 09:33N 40°53' E 029°12'0 0.0
2014-Sep-22 08:27N 40°53' E 029°12'0 0.0
2014-Sep-22 07:33N 40°53' E 029°12'0 0.0
2014-Sep-22 06:33N 40°53' E 029°12'0 0.0
2014-Sep-22 05:33N 40°53' E 029°12'0 0.0
2014-Sep-22 04:27N 40°53' E 029°12'0 0.0
2014-Sep-22 03:33N 40°53' E 029°12'0 0.0
2014-Sep-22 02:33N 40°53' E 029°12'0 0.0
2014-Sep-22 01:33N 40°53' E 029°12'0 0.0
2014-Sep-22 00:33N 40°53' E 029°12'0 0.0
2014-Sep-21 23:27N 40°53' E 029°12'0 0.0
2014-Sep-21 22:33N 40°53' E 029°12'0 0.0
2014-Sep-21 21:33N 40°53' E 029°12'0 0.0
2014-Sep-21 20:33N 40°53' E 029°12'0 0.0
2014-Sep-21 19:33N 40°53' E 029°12'0 0.0
2014-Sep-21 18:33N 40°53' E 029°12'0 0.0
2014-Sep-21 17:27N 40°53' E 029°12'0 0.0
2014-Sep-21 16:33N 40°53' E 029°12'0 0.0
2014-Sep-21 15:33N 40°53' E 029°12'0 0.0
2014-Sep-21 14:33N 40°53' E 029°12'0 0.0
2014-Sep-21 13:27N 40°53' E 029°12'0 0.0
2014-Sep-21 12:33N 40°53' E 029°12'0 0.0
2014-Sep-21 11:33N 40°53' E 029°12'0 0.0
2014-Sep-21 10:33N 40°53' E 029°12'0 0.0
2014-Sep-21 09:33N 40°53' E 029°12'0 0.0
2014-Sep-21 08:27N 40°53' E 029°12'0 0.0
2014-Sep-21 07:33N 40°53' E 029°12'0 0.0
2014-Sep-21 06:27N 40°53' E 029°12'0 0.0
2014-Sep-21 05:33N 40°53' E 029°12'0 0.0
2014-Sep-21 04:27N 40°53' E 029°12'0 0.0
2014-Sep-21 03:33N 40°53' E 029°12'0 0.0
2014-Sep-21 02:33N 40°53' E 029°12'0 0.0
2014-Sep-21 01:33N 40°53' E 029°12'0 0.0
2014-Sep-21 00:33N 40°53' E 029°12'0 0.0
2014-Sep-20 23:33N 40°53' E 029°12'0 0.0
2014-Sep-20 22:27N 40°53' E 029°12'  

Dump ship's entire track history